Geyserville, CA (95441)

3:16 AM PDT on September 22, 2014 (GMT -0700)
Geyserville | Change Station
CLOSE
Current Station
Personal Weather Station
Location: Geyserville, CA
Elevation: 207 ft
Nearby Weather Stations

Elev 207 ft 38.72 °N, 122.91 °W | Updated 12 seconds ago

Clear
Clear
52.9 °F
Feels Like 52.9 °F
N
0.3
Wind Variable Wind from ESE
Gusts 1.3 mph

Today
High -- | Low -- °F
--% Chance of Precip.
Yesterday
High -- | Low -- °F
Precip. -- in
6:59 AM 7:08 PM
Waning Crescent, 3% visible
Pressure 29.99 in
Visibility 10.0 miles
Clouds Scattered Clouds 700 ft
Dew Point 51 °F
Humidity 94%
Rainfall 0.00 in
Snow Depth 0 in , 1 in
UV 0 out of 12
Pollen 5.20 out of 12
Air Quality Not available.
Flu Activity Not available.
SPECI KSTS 221009Z 19003KT 10SM SCT007 13/12 A2999 RMK AO2

More Conditions Fewer Conditions

Pressure 29.99 in
Visibility 10.0 miles
Clouds Scattered Clouds 700 ft
Dew Point 51 °F
Humidity 94%
Rainfall 0.00 in
Snow Depth 0 in , 1 in
UV 0 out of 12
Pollen 5.20 out of 12
Air Quality Not available.
Flu Activity Not available.
SPECI KSTS 221009Z 19003KT 10SM SCT007 13/12 A2999 RMK AO2

More Conditions Fewer Conditions

10-Day Weather Forecast

Almanac

Astronomy

Sep. 22, 2014 Rise Set
Actual Time 6:59 AM PDT 7:08 PM PDT
Civil Twilight 6:32 AM PDT 7:34 PM PDT
Nautical Twilight 6:01 AM PDT 8:05 PM PDT
Astronomical Twilight 5:30 AM PDT 8:37 PM PDT
Moon 5:33 AM PDT 6:18 PM PDT
Length of Visible Light 13h 02m
Length of Day
12h 09m
Tomorrow will be 2m 30s shorter.
Waning Crescent, 3% of the Moon is Illuminated
Today
Waning Crescent
Sep 24
New
Oct 1
First Quarter
Oct 8
Full
Oct 15
Last Quarter

Today's Extremes

State Highs State Lows

Community

WunderPhotos

Upload Photos

1,755,404 photos uploaded!

Nearby

Air Quality

  Air Quality AQ Index Pollutant
Monday Good
PM2.5
Tuesday Good
PM2.5
Wednesday Good
OZONE
Thursday Good
OZONE
Friday Good
PM2.5

Snow Depth

Station Depth Elevation
Spratt Creek 1 in 6200 ft
Leavitt Meadows 1 in 7200 ft
Adin Mountain 0 in 6200 ft
Fallen Leaf 0 in 6300 ft
Forestdale Creek 0 in 8029 ft

Earthquake Activity

City Distance Mag. Time & Date
Sonoma, California 37 miles 2.7 1:17 PM PDT
2014-09-21
Cloverdale, California 9 miles 2.5 9:15 PM PDT
2014-09-20
Livermore, California 94 miles 2.6 3:37 AM PDT
2014-09-19
Minimum magnitude displayed is 2.5.

Coastal Water Temperatures

Place Temperature
Point Reyes, CA 64.9 °F
Arena Cove, CA 64.0 °F
San Francisco, CA 64.9 °F
Richmond, CA 66.9 °F

Nearby Weather Stations